Terri L. Brusco — WDC3034 — position and weather

sailwx.info

Track history (hours):
 
Tides and Currents Weather Stations Pressure Air Temp Water Temp Dewpoint Dewpoint Depression Visibility Wind Speed Wind Dir Waves Ship Positions

Terri L. Brusco

Owner: Brusco Tug & Barge, Inc., Longview, WA. More information available from US FCC via Universal Licensing System and Coast Guard Vessel Documentation Center.

Last reported at 2017-Apr-26 04:26 UTC. Time now 2017-Apr-26 11:50 UTC.
Position N 32°40' W 117°07'.

Length 21 m; draft 4 m.

Type: Tow > 200 m length. MMSI: 367001830.

Date/timePositionNaut miles runAvg speedWind from/ knotsBaromVisibWave heightAir tempDewpointWater temp
2017-Apr-26 04:26N 32°40' W 117°07'0 1.0
2017-Apr-26 03:58N 32°40' W 117°08'5 6.7
2017-Apr-26 03:11N 32°43' W 117°13'0 0.6
2017-Apr-26 03:00N 32°43' W 117°12'2 4.9
2017-Apr-26 02:30N 32°41' W 117°14'2 4.9
2017-Apr-26 02:00N 32°38' W 117°14'3 5.7
2017-Apr-26 01:25N 32°37' W 117°17'3 5.9
2017-Apr-26 00:57N 32°37' W 117°21'1 2.4
2017-Apr-26 00:30N 32°37' W 117°19'3 5.2
2017-Apr-26 00:00N 32°37' W 117°16'2 5.0
2017-Apr-25 23:30N 32°38' W 117°14'3 5.2
2017-Apr-25 23:00N 32°41' W 117°14'2 4.1
2017-Apr-25 22:30N 32°43' W 117°13'4 3.8
2017-Apr-25 21:23N 32°41' W 117°09'0 0.7
2017-Apr-25 20:57N 32°41' W 117°08'1 1.5
2017-Apr-25 20:03N 32°40' W 117°08'0 3.6
2017-Apr-25 19:57N 32°40' W 117°08'0 0.2
2017-Apr-25 18:08N 32°40' W 117°07'0 0.0
2017-Apr-25 17:52N 32°40' W 117°07'0 0.0
2017-Apr-25 16:57N 32°40' W 117°07'0 0.0
2017-Apr-25 13:44N 32°40' W 117°07'1 1.1
2017-Apr-25 13:12N 32°40' W 117°07'1 0.1
2017-Apr-25 07:36N 32°40' W 117°07'0 0.0
2017-Apr-25 07:26N 32°40' W 117°07'0 0.0
2017-Apr-25 03:52N 32°40' W 117°07'0 0.0
2017-Apr-25 03:30N 32°40' W 117°07'0 0.1
2017-Apr-25 01:25N 32°40' W 117°07'0 0.2
2017-Apr-25 00:55N 32°40' W 117°07'0 0.0
2017-Apr-24 13:50N 32°40' W 117°07'0 0.7
2017-Apr-24 13:16N 32°40' W 117°08'1 0.3
2017-Apr-24 11:22N 32°40' W 117°07'0 0.0
2017-Apr-23 15:46N 32°40' W 117°07'0 0.0
2017-Apr-23 06:53N 32°40' W 117°07'0 0.3
2017-Apr-23 06:30N 32°40' W 117°07'0 0.0
2017-Apr-23 01:15N 32°40' W 117°07'0 0.0
2017-Apr-22 16:53N 32°40' W 117°07'0 0.0
2017-Apr-22 14:17N 32°40' W 117°07'0 0.0
2017-Apr-22 10:25N 32°40' W 117°07'0 0.0
2017-Apr-22 10:00N 32°40' W 117°07'0 0.0
2017-Apr-22 09:20N 32°40' W 117°07'0 0.0
2017-Apr-22 00:43N 32°40' W 117°07'0 0.0
2017-Apr-22 00:30N 32°40' W 117°07'0 0.0
2017-Apr-21 15:49N 32°40' W 117°08'0 0.0
2017-Apr-21 14:57N 32°40' W 117°08'0 0.1
2017-Apr-21 13:29N 32°40' W 117°08'1 1.0
2017-Apr-21 12:58N 32°40' W 117°07'0 0.0
2017-Apr-21 12:30N 32°40' W 117°07'0 0.0
2017-Apr-21 11:56N 32°40' W 117°07'0 0.0
2017-Apr-21 11:21N 32°40' W 117°07'0 0.0
2017-Apr-21 10:56N 32°40' W 117°07'0 0.0
2017-Apr-21 10:27N 32°40' W 117°07'0 0.0
2017-Apr-21 09:59N 32°40' W 117°07'0 0.0
2017-Apr-21 09:30N 32°40' W 117°07'0 0.0
2017-Apr-21 08:59N 32°40' W 117°07'0 0.0
2017-Apr-21 07:42N 32°40' W 117°07'0 0.0
2017-Apr-21 07:28N 32°40' W 117°07'0 0.0
2017-Apr-21 05:53N 32°40' W 117°07'0 0.0
2017-Apr-21 04:18N 32°40' W 117°07'0 0.0
2017-Apr-20 18:32N 32°40' W 117°07'0 2.7
2017-Apr-20 18:29N 32°40' W 117°07'0 0.2
2017-Apr-20 18:00N 32°40' W 117°08'1 0.1
2017-Apr-19 23:31N 32°41' W 117°07'0 0.0
2017-Apr-19 22:43N 32°41' W 117°07'0 0.0
2017-Apr-19 22:30N 32°41' W 117°07'0 0.0
2017-Apr-19 21:56N 32°41' W 117°07'0 0.0
2017-Apr-17 21:29N 32°41' W 117°08'1 0.9
2017-Apr-17 20:32N 32°40' W 117°07'5 5.8
2017-Apr-17 19:37N 32°43' W 117°12'0 0.1
2017-Apr-17 19:30N 32°43' W 117°12'2 3.3
2017-Apr-17 19:00N 32°42' W 117°14'3 5.5
2017-Apr-17 18:30N 32°39' W 117°13'3 5.6
2017-Apr-17 17:55N 32°37' W 117°17'3 6.5
2017-Apr-17 17:30N 32°37' W 117°20'0 0.6
2017-Apr-17 17:00N 32°37' W 117°20'2 4.6
2017-Apr-17 16:30N 32°37' W 117°17'2 4.7
2017-Apr-17 16:00N 32°38' W 117°14'2 4.1
2017-Apr-17 15:30N 32°40' W 117°14'3 5.0
2017-Apr-17 15:00N 32°42' W 117°14'1 2.4
2017-Apr-17 14:30N 32°43' W 117°12'5 4.6
2017-Apr-17 13:30N 32°41' W 117°08'1 0.3
2017-Apr-17 11:14N 32°40' W 117°07'1 0.2
2017-Apr-17 09:06N 32°41' W 117°07'0 0.8
2017-Apr-17 08:45N 32°41' W 117°08'0 0.9
2017-Apr-17 08:14N 32°40' W 117°07'0 0.0
2017-Apr-17 06:09N 32°40' W 117°07'0 0.0
2017-Apr-17 05:59N 32°40' W 117°07'0 0.0
2017-Apr-16 23:05N 32°40' W 117°07'0 0.0
2017-Apr-16 23:00N 32°40' W 117°07'0 0.0
2017-Apr-16 21:08N 32°40' W 117°07'0 0.0
2017-Apr-16 20:59N 32°40' W 117°07'0 0.0
2017-Apr-16 19:21N 32°40' W 117°07'0 0.0
2017-Apr-16 18:14N 32°40' W 117°07'1 0.4
2017-Apr-16 16:56N 32°40' W 117°08'0 0.8
2017-Apr-16 16:28N 32°40' W 117°07'0 0.0
2017-Apr-16 15:58N 32°40' W 117°07'0 0.0
2017-Apr-16 15:14N 32°40' W 117°07'0 0.0
2017-Apr-16 14:55N 32°40' W 117°07'0 0.0
2017-Apr-16 14:20N 32°40' W 117°07'0 0.0
2017-Apr-16 13:30N 32°40' W 117°07'0 0.0
2017-Apr-16 08:44N 32°40' W 117°07'0 0.3
2017-Apr-16 08:22N 32°40' W 117°07'0 0.1
2017-Apr-16 07:36N 32°40' W 117°07'0 0.0
2017-Apr-16 07:16N 32°40' W 117°07'0 0.0
2017-Apr-16 07:00N 32°40' W 117°07'0 0.0
2017-Apr-16 06:15N 32°40' W 117°07'  
Track history (hours):
 
Tides and Currents Weather Stations Pressure Air Temp Water Temp Dewpoint Dewpoint Depression Visibility Wind Speed Wind Dir Waves Ship Positions

Terri L. Brusco

Owner: Brusco Tug & Barge, Inc., Longview, WA. More information available from US FCC via Universal Licensing System and Coast Guard Vessel Documentation Center.

Last reported at 2017-Apr-26 04:26 UTC. Time now 2017-Apr-26 11:50 UTC.
Position N 32°40' W 117°07'.

Length 21 m; draft 4 m.

Type: Tow > 200 m length. MMSI: 367001830.

Date/timePositionNaut miles runAvg speedWind from/ knotsBaromVisibWave heightAir tempDewpointWater temp
2017-Apr-26 04:26N 32°40' W 117°07'0 1.0
2017-Apr-26 03:58N 32°40' W 117°08'5 6.7
2017-Apr-26 03:11N 32°43' W 117°13'0 0.6
2017-Apr-26 03:00N 32°43' W 117°12'2 4.9
2017-Apr-26 02:30N 32°41' W 117°14'2 4.9
2017-Apr-26 02:00N 32°38' W 117°14'3 5.7
2017-Apr-26 01:25N 32°37' W 117°17'3 5.9
2017-Apr-26 00:57N 32°37' W 117°21'1 2.4
2017-Apr-26 00:30N 32°37' W 117°19'3 5.2
2017-Apr-26 00:00N 32°37' W 117°16'2 5.0
2017-Apr-25 23:30N 32°38' W 117°14'3 5.2
2017-Apr-25 23:00N 32°41' W 117°14'2 4.1
2017-Apr-25 22:30N 32°43' W 117°13'4 3.8
2017-Apr-25 21:23N 32°41' W 117°09'0 0.7
2017-Apr-25 20:57N 32°41' W 117°08'1 1.5
2017-Apr-25 20:03N 32°40' W 117°08'0 3.6
2017-Apr-25 19:57N 32°40' W 117°08'0 0.2
2017-Apr-25 18:08N 32°40' W 117°07'0 0.0
2017-Apr-25 17:52N 32°40' W 117°07'0 0.0
2017-Apr-25 16:57N 32°40' W 117°07'0 0.0
2017-Apr-25 13:44N 32°40' W 117°07'1 1.1
2017-Apr-25 13:12N 32°40' W 117°07'1 0.1
2017-Apr-25 07:36N 32°40' W 117°07'0 0.0
2017-Apr-25 07:26N 32°40' W 117°07'0 0.0
2017-Apr-25 03:52N 32°40' W 117°07'0 0.0
2017-Apr-25 03:30N 32°40' W 117°07'0 0.1
2017-Apr-25 01:25N 32°40' W 117°07'0 0.2
2017-Apr-25 00:55N 32°40' W 117°07'0 0.0
2017-Apr-24 13:50N 32°40' W 117°07'0 0.7
2017-Apr-24 13:16N 32°40' W 117°08'1 0.3
2017-Apr-24 11:22N 32°40' W 117°07'0 0.0
2017-Apr-23 15:46N 32°40' W 117°07'0 0.0
2017-Apr-23 06:53N 32°40' W 117°07'0 0.3
2017-Apr-23 06:30N 32°40' W 117°07'0 0.0
2017-Apr-23 01:15N 32°40' W 117°07'0 0.0
2017-Apr-22 16:53N 32°40' W 117°07'0 0.0
2017-Apr-22 14:17N 32°40' W 117°07'0 0.0
2017-Apr-22 10:25N 32°40' W 117°07'0 0.0
2017-Apr-22 10:00N 32°40' W 117°07'0 0.0
2017-Apr-22 09:20N 32°40' W 117°07'0 0.0
2017-Apr-22 00:43N 32°40' W 117°07'0 0.0
2017-Apr-22 00:30N 32°40' W 117°07'0 0.0
2017-Apr-21 15:49N 32°40' W 117°08'0 0.0
2017-Apr-21 14:57N 32°40' W 117°08'0 0.1
2017-Apr-21 13:29N 32°40' W 117°08'1 1.0
2017-Apr-21 12:58N 32°40' W 117°07'0 0.0
2017-Apr-21 12:30N 32°40' W 117°07'0 0.0
2017-Apr-21 11:56N 32°40' W 117°07'0 0.0
2017-Apr-21 11:21N 32°40' W 117°07'0 0.0
2017-Apr-21 10:56N 32°40' W 117°07'0 0.0
2017-Apr-21 10:27N 32°40' W 117°07'0 0.0
2017-Apr-21 09:59N 32°40' W 117°07'0 0.0
2017-Apr-21 09:30N 32°40' W 117°07'0 0.0
2017-Apr-21 08:59N 32°40' W 117°07'0 0.0
2017-Apr-21 07:42N 32°40' W 117°07'0 0.0
2017-Apr-21 07:28N 32°40' W 117°07'0 0.0
2017-Apr-21 05:53N 32°40' W 117°07'0 0.0
2017-Apr-21 04:18N 32°40' W 117°07'0 0.0
2017-Apr-20 18:32N 32°40' W 117°07'0 2.7
2017-Apr-20 18:29N 32°40' W 117°07'0 0.2
2017-Apr-20 18:00N 32°40' W 117°08'1 0.1
2017-Apr-19 23:31N 32°41' W 117°07'0 0.0
2017-Apr-19 22:43N 32°41' W 117°07'0 0.0
2017-Apr-19 22:30N 32°41' W 117°07'0 0.0
2017-Apr-19 21:56N 32°41' W 117°07'0 0.0
2017-Apr-17 21:29N 32°41' W 117°08'1 0.9
2017-Apr-17 20:32N 32°40' W 117°07'5 5.8
2017-Apr-17 19:37N 32°43' W 117°12'0 0.1
2017-Apr-17 19:30N 32°43' W 117°12'2 3.3
2017-Apr-17 19:00N 32°42' W 117°14'3 5.5
2017-Apr-17 18:30N 32°39' W 117°13'3 5.6
2017-Apr-17 17:55N 32°37' W 117°17'3 6.5
2017-Apr-17 17:30N 32°37' W 117°20'0 0.6
2017-Apr-17 17:00N 32°37' W 117°20'2 4.6
2017-Apr-17 16:30N 32°37' W 117°17'2 4.7
2017-Apr-17 16:00N 32°38' W 117°14'2 4.1
2017-Apr-17 15:30N 32°40' W 117°14'3 5.0
2017-Apr-17 15:00N 32°42' W 117°14'1 2.4
2017-Apr-17 14:30N 32°43' W 117°12'5 4.6
2017-Apr-17 13:30N 32°41' W 117°08'1 0.3
2017-Apr-17 11:14N 32°40' W 117°07'1 0.2
2017-Apr-17 09:06N 32°41' W 117°07'0 0.8
2017-Apr-17 08:45N 32°41' W 117°08'0 0.9
2017-Apr-17 08:14N 32°40' W 117°07'0 0.0
2017-Apr-17 06:09N 32°40' W 117°07'0 0.0
2017-Apr-17 05:59N 32°40' W 117°07'0 0.0
2017-Apr-16 23:05N 32°40' W 117°07'0 0.0
2017-Apr-16 23:00N 32°40' W 117°07'0 0.0
2017-Apr-16 21:08N 32°40' W 117°07'0 0.0
2017-Apr-16 20:59N 32°40' W 117°07'0 0.0
2017-Apr-16 19:21N 32°40' W 117°07'0 0.0
2017-Apr-16 18:14N 32°40' W 117°07'1 0.4
2017-Apr-16 16:56N 32°40' W 117°08'0 0.8
2017-Apr-16 16:28N 32°40' W 117°07'0 0.0
2017-Apr-16 15:58N 32°40' W 117°07'0 0.0
2017-Apr-16 15:14N 32°40' W 117°07'0 0.0
2017-Apr-16 14:55N 32°40' W 117°07'0 0.0
2017-Apr-16 14:20N 32°40' W 117°07'0 0.0
2017-Apr-16 13:30N 32°40' W 117°07'0 0.0
2017-Apr-16 08:44N 32°40' W 117°07'0 0.3
2017-Apr-16 08:22N 32°40' W 117°07'0 0.1
2017-Apr-16 07:36N 32°40' W 117°07'0 0.0
2017-Apr-16 07:16N 32°40' W 117°07'0 0.0
2017-Apr-16 07:00N 32°40' W 117°07'0 0.0
2017-Apr-16 06:15N 32°40' W 117°07'  

Dump ship's entire track history